createdAt,value
2022-08-10T00:01:17.077Z,102294.75
2022-08-10T00:04:04.392Z,102295.75
2022-08-10T00:06:54.042Z,102297.72
2022-08-10T00:09:50.964Z,102298.78
2022-08-10T00:12:54.761Z,102290.19
2022-08-10T00:15:52.353Z,102298.88
2022-08-10T00:18:40.825Z,102300.75
2022-08-10T00:21:27.589Z,102300.03
2022-08-10T00:24:16.277Z,102302.88
2022-08-10T00:27:52.570Z,102300.34
2022-08-10T00:30:10.263Z,102299.63
2022-08-10T00:32:57.143Z,102297.75
2022-08-10T00:36:08.988Z,102294.28
2022-08-10T00:38:55.667Z,102296.25
2022-08-10T00:41:43.740Z,102285.84
2022-08-10T00:44:30.567Z,102289.34
2022-08-10T00:47:36.499Z,102263.00
2022-08-10T00:50:24.427Z,102278.84
2022-08-10T00:53:11.102Z,102282.53
2022-08-10T00:56:35.088Z,102272.66
2022-08-10T00:59:06.174Z,102268.31
2022-08-10T01:02:08.315Z,102276.25
2022-08-10T01:04:59.815Z,102263.91
2022-08-10T01:08:11.942Z,102265.75
2022-08-10T01:11:06.324Z,102268.59
2022-08-10T01:14:22.786Z,102275.81
2022-08-10T01:17:14.479Z,102273.25
2022-08-10T01:20:07.719Z,102268.00
2022-08-10T01:23:26.845Z,102272.50
2022-08-10T01:26:58.833Z,102269.13
2022-08-10T01:29:56.619Z,102267.31
2022-08-10T01:32:58.980Z,102267.19
2022-08-10T01:35:53.162Z,102277.75
2022-08-10T01:38:45.842Z,102277.09
2022-08-10T01:41:47.000Z,102280.69
2022-08-10T01:44:37.870Z,102280.97
2022-08-10T01:47:48.710Z,102268.78
2022-08-10T01:50:53.251Z,102269.75
2022-08-10T01:53:52.210Z,102267.25
2022-08-10T01:56:43.476Z,102274.47
2022-08-10T01:59:34.958Z,102262.03
2022-08-10T02:02:22.518Z,102269.25
2022-08-10T02:05:11.626Z,102265.94
2022-08-10T02:08:00.865Z,102275.56
2022-08-10T02:10:49.695Z,102271.03
2022-08-10T02:13:37.525Z,102272.06
2022-08-10T02:16:26.327Z,102276.63
2022-08-10T02:19:16.137Z,102268.69
2022-08-10T02:22:35.704Z,102270.56
2022-08-10T02:25:41.538Z,102275.09
2022-08-10T02:28:29.361Z,102263.75
2022-08-10T02:31:23.120Z,102259.38
2022-08-10T02:34:12.684Z,102261.34
2022-08-10T02:37:02.380Z,102269.47
2022-08-10T02:39:58.960Z,102271.28
2022-08-10T02:45:22.691Z,102266.88
2022-08-10T02:46:04.707Z,102271.25
2022-08-10T02:48:59.440Z,102271.28
2022-08-10T02:52:07.614Z,102271.41
2022-08-10T02:55:06.193Z,102266.28
2022-08-10T02:58:13.447Z,102269.09
2022-08-10T03:01:08.418Z,102261.22
2022-08-10T03:04:01.959Z,102272.81
2022-08-10T03:06:55.713Z,102271.13
2022-08-10T03:09:44.304Z,102262.31
2022-08-10T03:12:37.329Z,102268.56
2022-08-10T03:15:28.464Z,102273.06
2022-08-10T03:18:16.308Z,102273.00
2022-08-10T03:21:03.761Z,102272.88
2022-08-10T03:23:52.687Z,102272.88
2022-08-10T03:26:40.224Z,102266.69
2022-08-10T03:29:30.127Z,102268.63
2022-08-10T03:32:37.317Z,102279.31
2022-08-10T03:35:25.058Z,102274.97
2022-08-10T03:38:11.980Z,102277.69
2022-08-10T03:41:03.083Z,102281.25
2022-08-10T03:43:51.400Z,102297.22
2022-08-10T03:46:42.809Z,102288.38
2022-08-10T03:49:32.082Z,102283.97
2022-08-10T03:52:19.972Z,102287.50
2022-08-10T03:55:08.180Z,102286.47
2022-08-10T03:57:55.083Z,102294.38
2022-08-10T04:00:42.577Z,102288.25
2022-08-10T04:03:30.745Z,102279.47
2022-08-10T04:06:17.885Z,102294.41
2022-08-10T04:09:06.095Z,102289.13
2022-08-10T04:11:52.546Z,102290.00
2022-08-10T04:14:51.350Z,102289.91
2022-08-10T04:18:04.480Z,102289.03
2022-08-10T04:20:51.738Z,102293.47
2022-08-10T04:23:42.343Z,102295.19
2022-08-10T04:26:29.523Z,102295.09
2022-08-10T04:29:16.439Z,102298.50
2022-08-10T04:32:04.933Z,102306.25
2022-08-10T04:34:53.732Z,102298.00
2022-08-10T04:37:47.339Z,102299.19
2022-08-10T04:40:34.439Z,102302.41
2022-08-10T04:43:21.498Z,102306.41
2022-08-10T04:46:42.461Z,102307.66
2022-08-10T04:49:54.554Z,102306.31
2022-08-10T04:52:21.973Z,102300.94
2022-08-10T04:55:13.502Z,102298.94
2022-08-10T04:58:01.969Z,102308.28
2022-08-10T05:00:48.997Z,102297.75
2022-08-10T05:03:35.691Z,102309.41
2022-08-10T05:06:42.213Z,102310.31
2022-08-10T05:09:29.115Z,102308.66
2022-08-10T05:12:17.261Z,102304.50
2022-08-10T05:15:04.057Z,102304.09
2022-08-10T05:18:08.872Z,102304.16
2022-08-10T05:20:56.255Z,102305.75
2022-08-10T05:23:43.054Z,102311.78
2022-08-10T05:26:29.940Z,102312.97
2022-08-10T05:29:18.030Z,102311.56
2022-08-10T05:32:05.526Z,102322.53
2022-08-10T05:34:52.130Z,102320.25
2022-08-10T05:38:13.035Z,102327.88
2022-08-10T05:40:47.824Z,102315.13
2022-08-10T05:43:35.252Z,102316.78
2022-08-10T05:46:23.448Z,102318.88
2022-08-10T05:49:10.353Z,102319.97
2022-08-10T05:51:57.368Z,102323.66
2022-08-10T05:54:44.285Z,102328.91
2022-08-10T05:57:31.077Z,102315.94
2022-08-10T06:00:37.272Z,102313.56
2022-08-10T06:03:30.984Z,102292.34
2022-08-10T06:06:24.830Z,102317.19
2022-08-10T06:09:16.552Z,102317.31
2022-08-10T06:12:24.214Z,102315.75
2022-08-10T06:15:21.568Z,102312.97
2022-08-10T06:18:26.554Z,102317.06
2022-08-10T06:21:14.599Z,102316.13
2022-08-10T06:24:03.253Z,102315.06
2022-08-10T06:26:49.929Z,102305.72
2022-08-10T06:29:38.774Z,102311.00
2022-08-10T06:32:28.682Z,102311.03
2022-08-10T06:35:18.661Z,102313.03
2022-08-10T06:38:07.544Z,102310.22
2022-08-10T06:40:58.170Z,102317.41
2022-08-10T06:43:48.991Z,102314.06
2022-08-10T06:46:38.937Z,102311.22
2022-08-10T06:49:25.311Z,102306.34
2022-08-10T06:52:18.482Z,102307.88
2022-08-10T06:55:09.341Z,102304.31
2022-08-10T06:58:00.571Z,102306.94
2022-08-10T07:00:49.924Z,102303.97
2022-08-10T07:03:44.848Z,102299.94
2022-08-10T07:06:35.879Z,102298.78
2022-08-10T07:09:27.091Z,102298.09
2022-08-10T07:12:18.353Z,102284.06
2022-08-10T07:15:11.088Z,102284.72
2022-08-10T07:18:00.243Z,102290.47
2022-08-10T07:20:48.728Z,102286.84
2022-08-10T07:23:57.700Z,102278.91
2022-08-10T07:26:49.005Z,102285.16
2022-08-10T07:29:53.486Z,102288.78
2022-08-10T07:32:44.181Z,102289.38
2022-08-10T07:35:42.713Z,102284.50
2022-08-10T07:38:32.936Z,102293.22
2022-08-10T07:41:23.460Z,102294.91
2022-08-10T07:44:12.877Z,102296.50
2022-08-10T07:47:04.037Z,102296.56
2022-08-10T07:49:53.215Z,102296.13
2022-08-10T07:52:41.112Z,102296.94
2022-08-10T07:56:10.182Z,102294.09
2022-08-10T07:58:39.539Z,102289.53
2022-08-10T08:01:37.301Z,102289.00
2022-08-10T08:04:26.556Z,102288.47
2022-08-10T08:07:17.325Z,102292.03
2022-08-10T08:10:09.810Z,102286.19
2022-08-10T08:12:58.027Z,102284.72
2022-08-10T08:16:20.239Z,102287.34
2022-08-10T08:19:26.394Z,102287.50
2022-08-10T08:24:07.521Z,102288.66
2022-08-10T08:25:14.483Z,102278.94
2022-08-10T08:28:03.034Z,102272.34
2022-08-10T08:30:50.730Z,102278.72
2022-08-10T08:33:42.215Z,102279.31
2022-08-10T08:36:32.949Z,102276.56
2022-08-10T08:39:19.646Z,102279.78
2022-08-10T08:42:28.816Z,102266.81
2022-08-10T08:45:25.341Z,102272.19
2022-08-10T08:48:32.199Z,102268.31
2022-08-10T08:52:07.272Z,102252.41
2022-08-10T08:54:49.562Z,102269.72
2022-08-10T08:57:49.464Z,102275.19
2022-08-10T09:00:44.935Z,102261.22
2022-08-10T09:03:52.815Z,102264.81
2022-08-10T09:07:07.448Z,102263.94
2022-08-10T09:10:25.561Z,102265.34
2022-08-10T09:13:26.697Z,102260.78
2022-08-10T09:16:25.481Z,102256.44
2022-08-10T09:19:34.651Z,102260.47
2022-08-10T09:22:32.621Z,102253.59
2022-08-10T09:25:24.077Z,102243.88
2022-08-10T09:28:17.936Z,102247.44
2022-08-10T09:31:22.077Z,102247.47
2022-08-10T09:36:23.869Z,102242.88
2022-08-10T09:38:01.009Z,102233.84
2022-08-10T09:40:59.627Z,102243.22
2022-08-10T09:43:57.686Z,102238.63
2022-08-10T09:47:13.306Z,102230.69
2022-08-10T09:50:08.704Z,102233.50
2022-08-10T09:53:07.984Z,102236.84
2022-08-10T09:56:18.966Z,102240.47
2022-08-10T09:59:27.233Z,102231.72
2022-08-10T10:02:37.169Z,102227.47
2022-08-10T10:05:52.215Z,102219.31
2022-08-10T10:08:45.937Z,102237.34
2022-08-10T10:11:54.444Z,102227.00
2022-08-10T10:15:10.941Z,102228.56
2022-08-10T10:18:23.379Z,102224.56
2022-08-10T10:21:24.087Z,102228.22
2022-08-10T10:24:31.275Z,102214.53
2022-08-10T10:27:33.342Z,102209.09
2022-08-10T10:30:21.273Z,102208.38
2022-08-10T10:33:16.131Z,102201.75
2022-08-10T10:36:05.313Z,102199.69
2022-08-10T10:38:54.553Z,102190.91
2022-08-10T10:42:03.637Z,102191.53
2022-08-10T10:45:04.606Z,102197.97
2022-08-10T10:48:00.904Z,102188.84
2022-08-10T10:50:58.885Z,102190.03
2022-08-10T10:53:51.223Z,102188.28
2022-08-10T10:56:50.193Z,102183.63
2022-08-10T10:59:56.313Z,102181.75
2022-08-10T11:02:58.218Z,102175.44
2022-08-10T11:05:51.201Z,102176.94
2022-08-10T11:08:41.849Z,102155.34
2022-08-10T11:12:01.737Z,102168.97
2022-08-10T11:14:54.203Z,102178.25
2022-08-10T11:17:47.297Z,102179.47
2022-08-10T11:20:43.472Z,102182.81
2022-08-10T11:23:36.246Z,102179.13
2022-08-10T11:26:29.828Z,102176.94
2022-08-10T11:29:23.895Z,102173.75
2022-08-10T11:32:20.599Z,102168.25
2022-08-10T11:35:19.772Z,102167.47
2022-08-10T11:38:29.640Z,102165.81
2022-08-10T11:42:09.452Z,102162.50
2022-08-10T11:44:48.045Z,102145.22
2022-08-10T11:47:40.394Z,102158.88
2022-08-10T11:50:32.419Z,102148.97
2022-08-10T11:53:28.028Z,102147.91
2022-08-10T11:56:29.835Z,102148.38
2022-08-10T11:59:36.438Z,102147.97
2022-08-10T12:02:26.293Z,102142.38
2022-08-10T12:05:19.004Z,102143.75
2022-08-10T12:10:03.078Z,102142.88
2022-08-10T12:11:24.301Z,102143.41
2022-08-10T12:14:21.895Z,102148.38
2022-08-10T12:17:14.755Z,102147.13
2022-08-10T12:20:08.032Z,102144.13
2022-08-10T12:22:58.917Z,102138.59
2022-08-10T12:25:56.014Z,102134.03
2022-08-10T12:28:55.227Z,102134.09
2022-08-10T12:31:46.827Z,102127.84
2022-08-10T12:34:44.090Z,102113.75
2022-08-10T12:37:39.713Z,102121.53
2022-08-10T12:40:35.754Z,102131.44
2022-08-10T12:44:07.585Z,102117.84
2022-08-10T12:47:14.056Z,102119.34
2022-08-10T12:50:30.876Z,102110.31
2022-08-10T12:53:25.020Z,102112.06
2022-08-10T12:56:11.944Z,102106.97
2022-08-10T12:59:01.670Z,102110.06
2022-08-10T13:02:09.491Z,102094.38
2022-08-10T13:05:02.183Z,102090.41
2022-08-10T13:08:26.642Z,102086.72
2022-08-10T13:12:36.915Z,102086.84
2022-08-10T13:14:31.438Z,102069.66
2022-08-10T13:17:24.263Z,102079.19
2022-08-10T13:20:27.472Z,102071.25
2022-08-10T13:23:17.189Z,102073.50
2022-08-10T13:26:04.866Z,102067.03
2022-08-10T13:28:55.328Z,102068.25
2022-08-10T13:32:35.001Z,102061.72
2022-08-10T13:35:24.861Z,102045.91
2022-08-10T13:38:16.299Z,102053.03
2022-08-10T13:41:04.230Z,102050.16
2022-08-10T13:43:53.493Z,102055.78
2022-08-10T13:46:42.444Z,102049.09
2022-08-10T13:49:31.811Z,102053.03
2022-08-10T13:52:23.949Z,102046.50
2022-08-10T13:55:13.474Z,102039.97
2022-08-10T13:58:03.696Z,102037.25
2022-08-10T14:00:50.946Z,102039.00
2022-08-10T14:03:40.226Z,102034.41
2022-08-10T14:06:29.498Z,102033.66
2022-08-10T14:09:19.035Z,102026.59
2022-08-10T14:12:07.656Z,102031.63
2022-08-10T14:14:55.929Z,102032.97
2022-08-10T14:17:45.077Z,102041.41
2022-08-10T14:20:35.035Z,102015.00
2022-08-10T14:23:22.184Z,102028.56
2022-08-10T14:26:16.072Z,102031.00
2022-08-10T14:29:06.563Z,102017.44
2022-08-10T14:32:00.507Z,102019.50
2022-08-10T14:36:16.443Z,102012.25
2022-08-10T14:38:01.309Z,102006.28
2022-08-10T14:40:53.838Z,102003.88
2022-08-10T14:43:43.186Z,101999.88
2022-08-10T14:46:30.975Z,101997.78
2022-08-10T14:49:25.451Z,102000.84
2022-08-10T14:52:14.949Z,102003.81
2022-08-10T14:55:05.842Z,101999.84
2022-08-10T14:58:20.221Z,101992.94
2022-08-10T15:01:09.634Z,101997.22
2022-08-10T15:04:01.929Z,101989.16
2022-08-10T15:06:54.135Z,101985.38
2022-08-10T15:09:59.870Z,101982.44
2022-08-10T15:12:49.441Z,101968.41
2022-08-10T15:16:01.974Z,101982.78
2022-08-10T15:18:58.331Z,101984.00
2022-08-10T15:21:47.115Z,101973.78
2022-08-10T15:25:04.073Z,101974.88
2022-08-10T15:27:56.123Z,101980.25
2022-08-10T15:30:44.929Z,101967.56
2022-08-10T15:34:04.190Z,101965.06
2022-08-10T15:37:40.133Z,101959.38
2022-08-10T15:40:30.866Z,101962.47
2022-08-10T15:43:25.752Z,101950.41
2022-08-10T15:46:17.304Z,101961.50
2022-08-10T15:49:10.957Z,101962.03
2022-08-10T15:52:04.963Z,101960.22
2022-08-10T15:54:57.931Z,101954.06
2022-08-10T15:57:49.672Z,101952.97
2022-08-10T16:00:41.342Z,101947.91
2022-08-10T16:03:33.971Z,101957.91
2022-08-10T16:06:29.101Z,101955.16
2022-08-10T16:10:10.888Z,101955.31
2022-08-10T16:12:34.059Z,101946.81
2022-08-10T16:15:24.143Z,101937.69
2022-08-10T16:18:14.456Z,101945.47
2022-08-10T16:21:03.515Z,101951.44
2022-08-10T16:24:15.418Z,101947.09
2022-08-10T16:27:11.260Z,101951.69
2022-08-10T16:30:06.823Z,101946.63
2022-08-10T16:32:54.145Z,101952.22
2022-08-10T16:35:48.169Z,101949.34
2022-08-10T16:38:42.813Z,101946.31
2022-08-10T16:42:03.124Z,101945.69
2022-08-10T16:44:51.489Z,101942.16
2022-08-10T16:47:48.012Z,101940.00
2022-08-10T16:50:43.185Z,101939.06
2022-08-10T16:53:32.115Z,101940.59
2022-08-10T16:56:25.248Z,101944.84
2022-08-10T16:59:29.516Z,101946.91
2022-08-10T17:02:24.195Z,101937.16
2022-08-10T17:05:14.452Z,101936.06
2022-08-10T17:08:23.046Z,101930.53
2022-08-10T17:11:11.481Z,101936.16
2022-08-10T17:14:03.002Z,101938.13
2022-08-10T17:16:56.533Z,101923.72
2022-08-10T17:19:46.167Z,101932.47
2022-08-10T17:22:38.084Z,101925.09
2022-08-10T17:25:48.574Z,101932.66
2022-08-10T17:28:39.988Z,101925.84
2022-08-10T17:31:54.008Z,101928.41
2022-08-10T17:34:45.616Z,101927.56
2022-08-10T17:37:37.604Z,101931.81
2022-08-10T17:40:25.588Z,101933.97
2022-08-10T17:43:13.393Z,101932.00
2022-08-10T17:46:25.064Z,101937.38
2022-08-10T17:49:13.566Z,101938.09
2022-08-10T17:52:02.769Z,101931.66
2022-08-10T17:54:58.517Z,101939.28
2022-08-10T17:57:47.165Z,101934.56
2022-08-10T18:00:51.581Z,101930.69
2022-08-10T18:03:44.358Z,101935.63
2022-08-10T18:06:32.284Z,101935.16
2022-08-10T18:09:26.049Z,101930.47
2022-08-10T18:12:18.386Z,101931.03
2022-08-10T18:15:13.724Z,101934.41
2022-08-10T18:18:03.604Z,101940.38
2022-08-10T18:20:53.195Z,101942.88
2022-08-10T18:23:42.913Z,101948.75
2022-08-10T18:26:42.959Z,101954.94
2022-08-10T18:29:32.426Z,101958.09
2022-08-10T18:32:21.754Z,101959.16
2022-08-10T18:35:10.324Z,101959.50
2022-08-10T18:38:02.479Z,101957.47
2022-08-10T18:40:54.366Z,101960.81
2022-08-10T18:44:05.924Z,101964.13
2022-08-10T18:46:57.209Z,101964.47
2022-08-10T18:50:02.300Z,101977.84
2022-08-10T18:52:53.954Z,101970.28
2022-08-10T18:56:09.643Z,101978.47
2022-08-10T18:59:02.734Z,101975.91
2022-08-10T19:02:08.479Z,101983.94
2022-08-10T19:05:31.156Z,101981.41
2022-08-10T19:08:49.145Z,101985.81
2022-08-10T19:12:02.252Z,101986.78
2022-08-10T19:14:58.321Z,101989.56
2022-08-10T19:18:01.248Z,101982.28
2022-08-10T19:20:58.883Z,101988.25
2022-08-10T19:23:58.928Z,101990.16
2022-08-10T19:27:03.038Z,102000.94
2022-08-10T19:30:11.208Z,102003.38
2022-08-10T19:33:21.898Z,102004.47
2022-08-10T19:36:18.520Z,102005.50
2022-08-10T19:39:26.647Z,102011.66
2022-08-10T19:42:20.947Z,102014.63
2022-08-10T19:45:56.243Z,102008.28
2022-08-10T19:48:42.364Z,102012.72
2022-08-10T19:51:44.345Z,102006.91
2022-08-10T19:54:45.436Z,102018.19
2022-08-10T19:57:45.614Z,102015.91
2022-08-10T20:00:43.030Z,102012.81
2022-08-10T20:03:41.656Z,102017.56
2022-08-10T20:06:33.301Z,102015.47
2022-08-10T20:09:29.783Z,102021.03
2022-08-10T20:12:24.363Z,102024.94
2022-08-10T20:15:20.111Z,102008.66
2022-08-10T20:18:13.033Z,102016.22
2022-08-10T20:21:07.167Z,102023.28
2022-08-10T20:23:57.510Z,102005.88
2022-08-10T20:26:47.901Z,102021.19
2022-08-10T20:29:58.739Z,102027.63
2022-08-10T20:32:50.654Z,102024.13
2022-08-10T20:35:48.781Z,102035.84
2022-08-10T20:38:43.094Z,102028.09
2022-08-10T20:41:46.055Z,102024.44
2022-08-10T20:44:50.767Z,102028.31
2022-08-10T20:47:54.199Z,102018.59
2022-08-10T20:50:46.533Z,102026.25
2022-08-10T20:53:43.667Z,102020.81
2022-08-10T20:56:43.336Z,102025.63
2022-08-10T21:00:02.511Z,102029.22
2022-08-10T21:03:06.854Z,102028.22
2022-08-10T21:06:04.995Z,102023.38
2022-08-10T21:09:00.901Z,102029.97
2022-08-10T21:12:05.825Z,102030.03
2022-08-10T21:15:09.123Z,102030.84
2022-08-10T21:18:27.143Z,102030.91
2022-08-10T21:21:41.818Z,102028.25
2022-08-10T21:24:44.092Z,102018.53
2022-08-10T21:28:04.668Z,102021.94
2022-08-10T21:31:14.195Z,102026.31
2022-08-10T21:34:19.341Z,102025.28
2022-08-10T21:37:23.164Z,102030.06
2022-08-10T21:41:17.140Z,102027.06
2022-08-10T21:44:25.455Z,102033.91
2022-08-10T21:48:06.630Z,102035.19
2022-08-10T21:51:24.023Z,102030.47
2022-08-10T21:54:37.575Z,102037.34
2022-08-10T21:57:49.372Z,102028.88
2022-08-10T22:00:59.283Z,102027.28
2022-08-10T22:04:07.202Z,102031.41
2022-08-10T22:07:17.147Z,102035.53
2022-08-10T22:10:25.621Z,102024.22
2022-08-10T22:13:36.501Z,102026.22
2022-08-10T22:16:49.660Z,102022.09
2022-08-10T22:20:00.144Z,102008.09
2022-08-10T22:23:19.152Z,102018.13
2022-08-10T22:26:37.754Z,102018.56
2022-08-10T22:29:56.687Z,101982.19
2022-08-10T22:33:16.989Z,102013.47
2022-08-10T22:36:46.345Z,102012.84
2022-08-10T22:40:14.338Z,102014.81
2022-08-10T22:43:35.891Z,102016.03
2022-08-10T22:46:46.117Z,102016.16
2022-08-10T22:49:31.916Z,102019.25
2022-08-10T22:52:22.546Z,102020.06
2022-08-10T22:55:33.537Z,102010.53
2022-08-10T22:58:38.229Z,102012.44
2022-08-10T23:02:07.065Z,102019.94
2022-08-10T23:04:53.808Z,101975.38
2022-08-10T23:07:48.242Z,101996.44
2022-08-10T23:10:40.551Z,101997.44
2022-08-10T23:13:36.235Z,101995.13
2022-08-10T23:16:46.436Z,101973.59
2022-08-10T23:19:36.123Z,101985.03
2022-08-10T23:22:35.156Z,101985.81
2022-08-10T23:25:29.996Z,101996.81
2022-08-10T23:28:19.936Z,101986.94
2022-08-10T23:31:59.210Z,101988.09
2022-08-10T23:34:37.233Z,101991.81
2022-08-10T23:37:29.537Z,101989.44
2022-08-10T23:40:18.992Z,101991.41
2022-08-10T23:43:07.243Z,101995.16
2022-08-10T23:45:56.472Z,102001.59
2022-08-10T23:48:46.764Z,102001.59
2022-08-10T23:51:54.736Z,101994.50
2022-08-10T23:54:49.848Z,101994.44
2022-08-10T23:57:42.573Z,101988.38
